createdAt,value
2019-05-10T00:01:30.869Z,80.10
2019-05-10T00:04:17.432Z,80.10
2019-05-10T00:07:04.212Z,80.30
2019-05-10T00:09:32.504Z,81.60
2019-05-10T00:12:03.103Z,80.60
2019-05-10T00:14:33.589Z,81.10
2019-05-10T00:17:05.279Z,81.40
2019-05-10T00:19:35.344Z,81.70
2019-05-10T00:22:04.258Z,82.30
2019-05-10T00:24:33.159Z,82.00
2019-05-10T00:27:02.154Z,82.20
2019-05-10T00:29:31.067Z,82.70
2019-05-10T00:31:59.967Z,82.30
2019-05-10T00:34:28.935Z,83.80
2019-05-10T00:36:57.858Z,82.70
2019-05-10T00:39:26.752Z,82.70
2019-05-10T00:41:55.722Z,82.70
2019-05-10T00:44:24.755Z,82.80
2019-05-10T00:46:53.662Z,82.60
2019-05-10T00:49:22.632Z,84.20
2019-05-10T00:51:51.560Z,83.90
2019-05-10T00:54:20.541Z,84.10
2019-05-10T00:56:49.515Z,83.30
2019-05-10T00:59:18.416Z,83.70
2019-05-10T01:01:47.367Z,83.10
2019-05-10T01:04:16.366Z,83.90
2019-05-10T01:06:45.339Z,85.20
2019-05-10T01:09:14.271Z,84.70
2019-05-10T01:11:43.220Z,85.00
2019-05-10T01:14:12.123Z,85.70
2019-05-10T01:16:41.053Z,85.00
2019-05-10T01:19:10.016Z,86.30
2019-05-10T01:21:38.956Z,86.30
2019-05-10T01:24:07.866Z,86.20
2019-05-10T01:26:36.866Z,85.90
2019-05-10T01:29:05.770Z,85.60
2019-05-10T01:31:34.772Z,84.80
2019-05-10T01:34:03.827Z,84.70
2019-05-10T01:36:32.789Z,84.40
2019-05-10T01:39:01.686Z,84.60
2019-05-10T01:41:30.627Z,84.70
2019-05-10T01:43:59.572Z,85.00
2019-05-10T01:46:28.461Z,85.00
2019-05-10T01:48:57.408Z,85.00
2019-05-10T01:51:28.003Z,84.60
2019-05-10T01:53:56.938Z,84.80
2019-05-10T01:56:25.902Z,84.90
2019-05-10T01:58:54.834Z,85.80
2019-05-10T02:01:23.786Z,85.80
2019-05-10T02:03:52.729Z,86.60
2019-05-10T02:06:21.639Z,86.10
2019-05-10T02:08:50.589Z,85.80
2019-05-10T02:11:19.502Z,85.80
2019-05-10T02:13:48.406Z,86.60
2019-05-10T02:16:17.357Z,86.50
2019-05-10T02:18:46.279Z,87.90
2019-05-10T02:21:15.217Z,88.10
2019-05-10T02:23:44.317Z,87.80
2019-05-10T02:26:13.255Z,87.60
2019-05-10T02:28:42.176Z,88.40
2019-05-10T02:31:11.255Z,88.50
2019-05-10T02:33:40.147Z,88.30
2019-05-10T02:36:09.058Z,88.20
2019-05-10T02:38:38.192Z,87.90
2019-05-10T02:41:07.297Z,88.40
2019-05-10T02:43:36.206Z,89.40
2019-05-10T02:46:05.129Z,89.00
2019-05-10T02:48:34.069Z,88.60
2019-05-10T02:51:02.967Z,88.50
2019-05-10T02:53:33.075Z,88.60
2019-05-10T02:56:03.219Z,88.60
2019-05-10T02:58:33.716Z,88.70
2019-05-10T03:01:04.569Z,89.50
2019-05-10T03:03:35.988Z,89.60
2019-05-10T03:06:05.219Z,90.10
2019-05-10T03:08:40.046Z,90.10
2019-05-10T03:11:09.682Z,89.90
2019-05-10T03:13:40.196Z,90.00
2019-05-10T03:16:09.110Z,90.00
2019-05-10T03:18:39.649Z,90.00
2019-05-10T03:21:10.623Z,89.90
2019-05-10T03:23:39.581Z,90.00
2019-05-10T03:26:08.533Z,90.00
2019-05-10T03:28:37.431Z,89.80
2019-05-10T03:31:06.679Z,89.80
2019-05-10T03:33:35.677Z,90.00
2019-05-10T03:36:04.691Z,90.10
2019-05-10T03:38:33.651Z,89.90
2019-05-10T03:41:02.886Z,89.90
2019-05-10T03:43:31.865Z,90.00
2019-05-10T03:46:00.811Z,90.10
2019-05-10T03:48:29.732Z,90.50
2019-05-10T03:50:58.632Z,90.30
2019-05-10T03:53:27.593Z,90.40
2019-05-10T03:55:56.480Z,90.60
2019-05-10T03:58:25.373Z,90.80
2019-05-10T04:00:55.392Z,90.60
2019-05-10T04:03:24.281Z,90.50
2019-05-10T04:05:53.195Z,90.50
2019-05-10T04:08:22.308Z,90.70
2019-05-10T04:10:52.210Z,90.60
2019-05-10T04:13:21.113Z,90.60
2019-05-10T04:15:51.646Z,90.70
2019-05-10T04:18:20.582Z,91.00
2019-05-10T04:20:49.498Z,90.90
2019-05-10T04:23:18.510Z,90.90
2019-05-10T04:25:47.460Z,90.80
2019-05-10T04:28:16.366Z,90.80
2019-05-10T04:30:46.710Z,90.70
2019-05-10T04:33:15.652Z,90.80
2019-05-10T04:35:44.549Z,90.90
2019-05-10T04:38:13.511Z,90.90
2019-05-10T04:40:42.423Z,90.80
2019-05-10T04:43:11.332Z,90.70
2019-05-10T04:45:40.259Z,91.00
2019-05-10T04:48:09.233Z,90.60
2019-05-10T04:50:38.206Z,90.40
2019-05-10T04:53:07.120Z,90.20
2019-05-10T04:55:36.894Z,90.10
2019-05-10T04:58:05.895Z,89.90
2019-05-10T05:00:34.911Z,89.80
2019-05-10T05:03:03.922Z,90.00
2019-05-10T05:05:32.840Z,90.00
2019-05-10T05:08:01.734Z,90.10
2019-05-10T05:10:30.663Z,89.80
2019-05-10T05:12:59.592Z,89.80
2019-05-10T05:15:28.507Z,89.90
2019-05-10T05:17:57.462Z,89.90
2019-05-10T05:20:26.379Z,89.80
2019-05-10T05:22:55.291Z,90.40
2019-05-10T05:25:24.301Z,89.60
2019-05-10T05:28:06.809Z,89.70
2019-05-10T05:30:23.991Z,90.00
2019-05-10T05:32:56.369Z,89.40
2019-05-10T05:35:23.530Z,89.30
2019-05-10T05:37:52.531Z,89.20
2019-05-10T05:40:21.476Z,89.10
2019-05-10T05:42:50.407Z,88.70
2019-05-10T05:45:19.366Z,88.60
2019-05-10T05:47:48.308Z,88.50
2019-05-10T05:50:17.291Z,88.20
2019-05-10T05:52:46.254Z,88.40
2019-05-10T05:55:15.171Z,87.80
2019-05-10T05:57:44.089Z,87.20
2019-05-10T06:00:13.254Z,86.30
2019-05-10T06:02:45.042Z,86.10
2019-05-10T06:05:12.763Z,85.90
2019-05-10T06:07:41.702Z,85.50
2019-05-10T06:10:17.066Z,85.80
2019-05-10T06:12:44.587Z,85.50
2019-05-10T06:15:12.034Z,85.40
2019-05-10T06:17:44.353Z,85.10
2019-05-10T06:20:13.594Z,85.00
2019-05-10T06:22:43.890Z,84.90
2019-05-10T06:25:13.140Z,84.90
2019-05-10T06:27:43.207Z,84.50
2019-05-10T06:30:12.485Z,83.30
2019-05-10T06:32:41.438Z,82.70
2019-05-10T06:35:14.099Z,82.20
2019-05-10T06:37:41.155Z,82.30
2019-05-10T06:40:10.315Z,81.60
2019-05-10T06:42:39.305Z,81.30
2019-05-10T06:45:14.502Z,81.40
2019-05-10T06:47:41.924Z,80.80
2019-05-10T06:50:09.879Z,80.30
2019-05-10T06:52:38.870Z,80.70
2019-05-10T06:55:09.045Z,79.50
2019-05-10T06:57:38.003Z,79.20
2019-05-10T07:00:11.678Z,79.20
2019-05-10T07:02:40.636Z,78.80
2019-05-10T07:05:10.503Z,79.20
2019-05-10T07:07:44.595Z,77.80
2019-05-10T07:10:18.708Z,77.30
2019-05-10T07:12:41.142Z,77.10
2019-05-10T07:15:10.553Z,77.00
2019-05-10T07:17:45.190Z,77.10
2019-05-10T07:20:10.768Z,77.30
2019-05-10T07:22:39.671Z,77.40
2019-05-10T07:25:08.967Z,77.10
2019-05-10T07:27:39.080Z,76.60
2019-05-10T07:30:08.645Z,76.80
2019-05-10T07:32:37.573Z,78.10
2019-05-10T07:35:07.105Z,76.30
2019-05-10T07:37:36.139Z,76.00
2019-05-10T07:40:07.887Z,75.40
2019-05-10T07:42:39.708Z,74.50
2019-05-10T07:45:07.901Z,74.70
2019-05-10T07:47:36.958Z,74.60
2019-05-10T07:50:09.848Z,74.50
2019-05-10T07:52:43.411Z,73.70
2019-05-10T07:55:10.228Z,73.30
2019-05-10T07:57:38.752Z,71.80
2019-05-10T08:00:08.344Z,71.50
2019-05-10T08:02:38.405Z,71.40
2019-05-10T08:05:11.037Z,69.60
2019-05-10T08:07:38.892Z,68.70
2019-05-10T08:10:09.090Z,66.30
2019-05-10T08:12:41.549Z,65.00
2019-05-10T08:15:10.020Z,63.60
2019-05-10T08:17:43.299Z,63.70
2019-05-10T08:20:20.404Z,63.40
2019-05-10T08:22:44.257Z,65.00
2019-05-10T08:25:12.649Z,65.20
2019-05-10T08:27:50.048Z,66.00
2019-05-10T08:30:27.979Z,64.80
2019-05-10T08:32:43.231Z,64.60
2019-05-10T08:35:16.959Z,63.30
2019-05-10T08:37:43.452Z,59.70
2019-05-10T08:40:12.856Z,60.10
2019-05-10T08:42:48.266Z,58.50
2019-05-10T08:45:13.301Z,58.80
2019-05-10T08:47:42.778Z,58.80
2019-05-10T08:50:29.395Z,59.50
2019-05-10T08:52:42.654Z,59.30
2019-05-10T08:55:12.397Z,59.00
2019-05-10T08:57:44.376Z,57.60
2019-05-10T09:00:13.237Z,55.50
2019-05-10T09:02:42.783Z,54.90
2019-05-10T09:05:12.636Z,55.70
2019-05-10T09:07:42.909Z,53.40
2019-05-10T09:10:13.062Z,54.40
2019-05-10T09:12:50.848Z,55.30
2019-05-10T09:15:13.703Z,56.20
2019-05-10T09:17:43.208Z,56.20
2019-05-10T09:20:20.864Z,56.80
2019-05-10T09:22:43.421Z,57.20
2019-05-10T09:25:13.048Z,57.50
2019-05-10T09:27:43.189Z,58.40
2019-05-10T09:30:14.200Z,56.10
2019-05-10T09:32:43.638Z,55.00
2019-05-10T09:35:16.180Z,52.60
2019-05-10T09:37:47.715Z,51.80
2019-05-10T09:40:15.875Z,50.30
2019-05-10T09:42:44.833Z,48.00
2019-05-10T09:45:13.915Z,45.30
2019-05-10T09:47:43.610Z,45.50
2019-05-10T09:50:14.122Z,43.40
2019-05-10T09:52:43.027Z,42.80
2019-05-10T09:55:14.658Z,45.60
2019-05-10T09:57:42.606Z,45.30
2019-05-10T10:00:12.614Z,46.10
2019-05-10T10:02:47.869Z,46.70
2019-05-10T10:05:13.117Z,48.00
2019-05-10T10:07:42.076Z,48.70
2019-05-10T10:10:12.844Z,49.40
2019-05-10T10:12:41.928Z,49.50
2019-05-10T10:15:18.711Z,48.70
2019-05-10T10:17:42.532Z,47.70
2019-05-10T10:20:12.583Z,47.10
2019-05-10T10:22:43.389Z,47.80
2019-05-10T10:25:12.074Z,44.80
2019-05-10T10:27:40.980Z,45.90
2019-05-10T10:30:14.984Z,45.80
2019-05-10T10:32:44.432Z,45.80
2019-05-10T10:35:13.300Z,44.20
2019-05-10T10:37:42.663Z,44.00
2019-05-10T10:40:14.982Z,43.60
2019-05-10T10:42:42.316Z,44.20
2019-05-10T10:45:11.684Z,45.40
2019-05-10T10:47:40.675Z,47.60
2019-05-10T10:50:13.516Z,48.80
2019-05-10T10:52:40.889Z,49.90
2019-05-10T10:55:11.602Z,49.70
2019-05-10T10:57:41.070Z,50.70
2019-05-10T11:00:11.585Z,52.60
2019-05-10T11:02:41.640Z,53.80
2019-05-10T11:05:11.234Z,54.70
2019-05-10T11:07:44.376Z,56.10
2019-05-10T11:10:18.697Z,55.80
2019-05-10T11:12:42.094Z,55.60
2019-05-10T11:15:11.627Z,55.40
2019-05-10T11:17:40.987Z,53.50
2019-05-10T11:20:11.524Z,51.30
2019-05-10T11:22:49.812Z,49.40
2019-05-10T11:25:13.307Z,47.00
2019-05-10T11:27:42.273Z,44.80
2019-05-10T11:30:12.306Z,43.70
2019-05-10T11:32:41.935Z,44.90
2019-05-10T11:35:12.064Z,47.10
2019-05-10T11:37:45.338Z,48.70
2019-05-10T11:40:18.030Z,49.60
2019-05-10T11:42:47.283Z,51.20
2019-05-10T11:45:14.486Z,52.20
2019-05-10T11:47:47.910Z,53.00
2019-05-10T11:50:28.869Z,53.00
2019-05-10T11:52:46.492Z,52.60
2019-05-10T11:55:15.471Z,53.20
2019-05-10T11:57:55.551Z,55.40
2019-05-10T12:00:28.078Z,57.10
2019-05-10T12:05:22.675Z,57.10
2019-05-10T12:07:47.464Z,57.00
2019-05-10T12:10:20.925Z,56.60
2019-05-10T12:13:01.784Z,57.10
2019-05-10T12:17:57.806Z,53.30
2019-05-10T12:20:26.908Z,51.50
2019-05-10T12:22:51.836Z,51.50
2019-05-10T12:25:38.028Z,52.60
2019-05-10T12:26:05.332Z,54.90
2019-05-10T12:26:19.458Z,57.50
2019-05-10T12:27:52.311Z,52.60
2019-05-10T12:30:21.823Z,52.70
2019-05-10T12:32:56.273Z,53.10
2019-05-10T12:35:26.375Z,52.60
2019-05-10T12:37:54.158Z,53.20
2019-05-10T12:40:24.126Z,53.90
2019-05-10T12:42:53.382Z,54.30
2019-05-10T12:45:23.539Z,54.70
2019-05-10T12:47:52.534Z,53.80
2019-05-10T12:50:21.549Z,54.70
2019-05-10T12:53:02.524Z,55.10
2019-05-10T12:55:21.058Z,55.30
2019-05-10T12:57:49.984Z,55.80
2019-05-10T13:00:20.497Z,55.80
2019-05-10T13:02:52.001Z,55.70
2019-05-10T13:05:31.262Z,55.70
2019-05-10T13:07:50.730Z,55.40
2019-05-10T13:10:19.654Z,55.30
2019-05-10T13:12:48.631Z,54.80
2019-05-10T13:15:17.667Z,53.10
2019-05-10T13:17:50.545Z,53.60
2019-05-10T13:20:17.402Z,52.70
2019-05-10T13:22:46.349Z,53.10
2019-05-10T13:25:15.262Z,52.10
2019-05-10T13:27:44.202Z,51.50
2019-05-10T13:30:13.359Z,50.20
2019-05-10T13:32:42.322Z,51.70
2019-05-10T13:35:11.554Z,52.20
2019-05-10T13:37:40.472Z,51.60
2019-05-10T13:40:09.554Z,51.30
2019-05-10T13:42:43.441Z,51.00
2019-05-10T13:45:09.384Z,51.10
2019-05-10T13:47:38.357Z,51.80
2019-05-10T13:50:08.570Z,51.60
2019-05-10T13:52:40.691Z,51.60
2019-05-10T13:55:08.523Z,53.10
2019-05-10T13:57:37.475Z,52.90
2019-05-10T14:00:08.014Z,53.60
2019-05-10T14:02:37.005Z,55.00
2019-05-10T14:05:06.517Z,54.80
2019-05-10T14:07:35.475Z,54.30
2019-05-10T14:10:09.538Z,54.00
2019-05-10T14:12:38.428Z,53.40
2019-05-10T14:15:12.940Z,52.50
2019-05-10T14:17:38.354Z,52.10
2019-05-10T14:20:19.623Z,52.50
2019-05-10T14:22:40.906Z,52.20
2019-05-10T14:25:10.136Z,52.50
2019-05-10T14:27:39.072Z,51.60
2019-05-10T14:30:13.439Z,52.10
2019-05-10T14:32:39.519Z,53.20
2019-05-10T14:35:08.656Z,53.10
2019-05-10T14:37:37.603Z,53.80
2019-05-10T14:40:07.918Z,53.60
2019-05-10T14:42:36.975Z,53.80
2019-05-10T14:45:06.469Z,52.40
2019-05-10T14:47:46.648Z,53.50
2019-05-10T14:50:07.703Z,53.50
2019-05-10T14:52:36.626Z,54.00
2019-05-10T14:55:07.123Z,53.70
2019-05-10T14:57:36.089Z,53.00
2019-05-10T15:00:07.232Z,52.40
2019-05-10T15:02:36.297Z,52.90
2019-05-10T15:05:08.916Z,51.90
2019-05-10T15:07:37.435Z,51.20
2019-05-10T15:10:07.958Z,51.80
2019-05-10T15:12:36.895Z,52.40
2019-05-10T15:15:06.902Z,52.40
2019-05-10T15:17:35.869Z,51.10
2019-05-10T15:20:06.664Z,51.30
2019-05-10T15:22:35.616Z,51.80
2019-05-10T15:25:06.482Z,52.10
2019-05-10T15:27:35.437Z,51.80
2019-05-10T15:30:08.120Z,52.70
2019-05-10T15:32:37.301Z,52.70
2019-05-10T15:35:08.308Z,53.20
2019-05-10T15:37:40.831Z,53.50
2019-05-10T15:40:09.868Z,52.90
2019-05-10T15:42:38.894Z,50.00
2019-05-10T15:45:12.216Z,51.20
2019-05-10T15:47:50.834Z,50.40
2019-05-10T15:50:11.239Z,50.90
2019-05-10T15:52:46.186Z,51.50
2019-05-10T15:55:10.877Z,50.60
2019-05-10T15:57:39.805Z,50.60
2019-05-10T16:00:09.627Z,50.60
2019-05-10T16:02:38.606Z,51.30
2019-05-10T16:05:23.299Z,52.10
2019-05-10T16:07:38.940Z,52.20
2019-05-10T16:10:08.706Z,51.80
2019-05-10T16:12:42.462Z,51.50
2019-05-10T16:15:13.638Z,52.80
2019-05-10T16:17:39.059Z,52.90
2019-05-10T16:20:08.200Z,52.90
2019-05-10T16:22:37.187Z,53.10
2019-05-10T16:25:07.021Z,53.10
2019-05-10T16:27:40.442Z,53.20
2019-05-10T16:30:12.054Z,54.70
2019-05-10T16:32:38.914Z,55.50
2019-05-10T16:35:12.660Z,55.40
2019-05-10T16:37:38.817Z,55.90
2019-05-10T16:40:08.077Z,56.50
2019-05-10T16:42:37.020Z,56.20
2019-05-10T16:45:06.431Z,55.90
2019-05-10T16:47:35.360Z,55.20
2019-05-10T16:50:06.335Z,55.70
2019-05-10T16:52:36.771Z,55.70
2019-05-10T16:55:09.806Z,54.70
2019-05-10T16:57:39.456Z,54.40
2019-05-10T17:00:10.606Z,55.10
2019-05-10T17:02:42.222Z,54.20
2019-05-10T17:05:15.317Z,55.50
2019-05-10T17:07:41.912Z,56.80
2019-05-10T17:10:11.141Z,57.00
2019-05-10T17:12:40.597Z,56.50
2019-05-10T17:15:09.854Z,55.90
2019-05-10T17:17:44.861Z,57.00
2019-05-10T17:20:14.764Z,57.10
2019-05-10T17:22:44.903Z,57.90
2019-05-10T17:25:14.021Z,57.30
2019-05-10T17:27:42.933Z,54.20
2019-05-10T17:30:12.343Z,53.10
2019-05-10T17:32:41.267Z,53.80
2019-05-10T17:35:10.380Z,53.50
2019-05-10T17:37:39.433Z,53.30
2019-05-10T17:40:12.044Z,54.20
2019-05-10T17:42:41.381Z,58.10
2019-05-10T17:45:10.758Z,59.50
2019-05-10T17:47:39.672Z,60.40
2019-05-10T17:50:09.064Z,61.80
2019-05-10T17:52:38.088Z,63.20
2019-05-10T17:55:10.811Z,64.70
2019-05-10T17:57:38.288Z,64.40
2019-05-10T18:00:08.367Z,64.40
2019-05-10T18:02:37.260Z,66.10
2019-05-10T18:05:08.317Z,66.40
2019-05-10T18:07:37.565Z,68.60
2019-05-10T18:10:07.603Z,68.10
2019-05-10T18:12:36.638Z,68.10
2019-05-10T18:15:07.201Z,67.80
2019-05-10T18:17:36.106Z,67.50
2019-05-10T18:20:06.142Z,67.60
2019-05-10T18:22:42.791Z,68.60
2019-05-10T18:25:06.385Z,68.00
2019-05-10T18:27:35.462Z,67.70
2019-05-10T18:30:06.860Z,68.10
2019-05-10T18:32:37.137Z,69.10
2019-05-10T18:35:14.244Z,70.40
2019-05-10T18:37:38.199Z,70.80
2019-05-10T18:40:07.745Z,72.70
2019-05-10T18:42:36.790Z,72.40
2019-05-10T18:45:09.034Z,74.20
2019-05-10T18:47:38.015Z,74.70
2019-05-10T18:50:07.233Z,75.40
2019-05-10T18:52:36.189Z,75.30
2019-05-10T18:55:06.662Z,76.70
2019-05-10T18:57:35.614Z,77.20
2019-05-10T19:00:08.472Z,77.70
2019-05-10T19:02:37.478Z,80.70
2019-05-10T19:05:07.734Z,80.10
2019-05-10T19:07:36.787Z,80.60
2019-05-10T19:10:07.620Z,82.70
2019-05-10T19:12:37.054Z,80.70
2019-05-10T19:15:12.578Z,82.00
2019-05-10T19:17:40.315Z,82.50
2019-05-10T19:20:16.333Z,83.30
2019-05-10T19:22:42.706Z,84.50
2019-05-10T19:25:14.246Z,85.00
2019-05-10T19:27:44.175Z,83.40
2019-05-10T19:30:13.289Z,83.80
2019-05-10T19:32:42.368Z,84.60
2019-05-10T19:35:14.841Z,84.00
2019-05-10T19:37:43.903Z,85.70
2019-05-10T19:40:13.404Z,84.30
2019-05-10T19:42:42.921Z,85.70
2019-05-10T19:45:18.986Z,84.80
2019-05-10T19:47:43.538Z,84.90
2019-05-10T19:50:13.493Z,86.30
2019-05-10T19:52:42.454Z,85.20
2019-05-10T19:55:12.861Z,85.40
2019-05-10T19:57:42.064Z,85.70
2019-05-10T20:00:11.543Z,87.10
2019-05-10T20:02:40.465Z,85.70
2019-05-10T20:05:09.805Z,86.20
2019-05-10T20:07:46.070Z,85.60
2019-05-10T20:10:09.656Z,85.90
2019-05-10T20:12:38.654Z,86.80
2019-05-10T20:15:07.734Z,86.10
2019-05-10T20:17:36.749Z,86.10
2019-05-10T20:20:06.993Z,87.00
2019-05-10T20:22:36.424Z,85.90
2019-05-10T20:25:08.687Z,86.60
2019-05-10T20:27:37.642Z,86.50
2019-05-10T20:30:07.585Z,88.30
2019-05-10T20:32:36.518Z,88.30
2019-05-10T20:35:08.983Z,87.40
2019-05-10T20:37:37.990Z,86.00
2019-05-10T20:40:08.141Z,86.50
2019-05-10T20:42:37.096Z,86.80
2019-05-10T20:45:08.445Z,85.10
2019-05-10T20:47:37.078Z,86.90
2019-05-10T20:50:06.340Z,86.50
2019-05-10T20:52:36.287Z,86.40
2019-05-10T20:55:06.815Z,86.70
2019-05-10T20:57:35.815Z,87.50
2019-05-10T21:00:07.858Z,87.90
2019-05-10T21:02:36.859Z,87.80
2019-05-10T21:05:07.610Z,88.00
2019-05-10T21:07:37.566Z,89.70
2019-05-10T21:10:07.605Z,88.80
2019-05-10T21:12:37.602Z,88.50
2019-05-10T21:15:08.540Z,88.50
2019-05-10T21:17:37.484Z,88.30
2019-05-10T21:20:08.320Z,87.80
2019-05-10T21:22:37.262Z,90.00
2019-05-10T21:25:07.511Z,89.20
2019-05-10T21:27:37.508Z,89.30
2019-05-10T21:30:10.129Z,89.70
2019-05-10T21:32:40.032Z,89.90
2019-05-10T21:35:10.731Z,90.20
2019-05-10T21:37:39.712Z,90.30
2019-05-10T21:40:09.333Z,90.30
2019-05-10T21:42:38.278Z,89.20
2019-05-10T21:45:07.585Z,89.50
2019-05-10T21:47:50.675Z,89.50
2019-05-10T21:50:07.299Z,89.60
2019-05-10T21:52:36.288Z,89.50
2019-05-10T21:55:05.592Z,90.10
2019-05-10T21:57:34.617Z,89.90
2019-05-10T22:00:04.049Z,89.70
2019-05-10T22:02:32.970Z,89.30
2019-05-10T22:05:01.972Z,89.90
2019-05-10T22:07:33.620Z,90.00
2019-05-10T22:10:02.558Z,89.10
2019-05-10T22:12:31.494Z,89.90
2019-05-10T22:15:00.433Z,89.20
2019-05-10T22:17:29.392Z,90.00
2019-05-10T22:19:58.297Z,89.60
2019-05-10T22:22:27.210Z,89.90
2019-05-10T22:24:56.183Z,90.10
2019-05-10T22:27:25.081Z,89.30
2019-05-10T22:29:53.973Z,89.20
2019-05-10T22:32:23.093Z,90.30
2019-05-10T22:34:53.038Z,90.20
2019-05-10T22:37:21.950Z,90.40
2019-05-10T22:39:50.900Z,90.00
2019-05-10T22:42:19.830Z,90.20
2019-05-10T22:44:48.724Z,89.60
2019-05-10T22:47:17.672Z,90.00
2019-05-10T22:49:46.572Z,90.40
2019-05-10T22:52:15.491Z,90.30
2019-05-10T22:54:45.221Z,90.60
2019-05-10T22:57:14.128Z,90.20
2019-05-10T22:59:43.069Z,90.90
2019-05-10T23:02:12.005Z,91.10
2019-05-10T23:04:40.952Z,91.20
2019-05-10T23:07:10.359Z,92.00
2019-05-10T23:09:39.331Z,91.90
2019-05-10T23:12:08.229Z,91.90
2019-05-10T23:14:37.130Z,91.30
2019-05-10T23:17:06.317Z,91.60
2019-05-10T23:19:35.216Z,92.00
2019-05-10T23:22:04.711Z,91.80
2019-05-10T23:24:38.171Z,92.10
2019-05-10T23:27:08.002Z,92.10
2019-05-10T23:29:36.917Z,92.10
2019-05-10T23:32:05.974Z,92.00
2019-05-10T23:34:34.916Z,91.60
2019-05-10T23:37:04.200Z,91.80
2019-05-10T23:39:40.684Z,92.40
2019-05-10T23:42:03.992Z,92.00
2019-05-10T23:44:32.975Z,91.90
2019-05-10T23:47:01.974Z,91.30
2019-05-10T23:49:30.856Z,92.10
2019-05-10T23:51:59.801Z,92.30
2019-05-10T23:54:28.752Z,92.00
2019-05-10T23:56:57.661Z,91.10
2019-05-10T23:59:26.583Z,91.50
